sensor_id;sensor_type;location;lat;lon;timestamp;P1;durP1;ratioP1;P2;durP2;ratioP2
80187;SDS011;73735;52.134;5.436;2024-03-02T00:00:04;3.30;;;1.33;;
80187;SDS011;73735;52.134;5.436;2024-03-02T00:05:11;3.55;;;1.33;;
80187;SDS011;73735;52.134;5.436;2024-03-02T00:07:43;3.20;;;1.10;;
80187;SDS011;73735;52.134;5.436;2024-03-02T00:10:11;4.95;;;1.33;;
80187;SDS011;73735;52.134;5.436;2024-03-02T00:12:42;3.60;;;0.95;;
80187;SDS011;73735;52.134;5.436;2024-03-02T00:17:56;3.53;;;1.10;;
80187;SDS011;73735;52.134;5.436;2024-03-02T00:20:25;3.03;;;1.15;;
80187;SDS011;73735;52.134;5.436;2024-03-02T00:23:03;4.53;;;1.27;;
80187;SDS011;73735;52.134;5.436;2024-03-02T00:25:35;2.70;;;1.00;;
80187;SDS011;73735;52.134;5.436;2024-03-02T00:28:05;5.65;;;0.90;;
80187;SDS011;73735;52.134;5.436;2024-03-02T00:33:21;4.13;;;1.10;;
80187;SDS011;73735;52.134;5.436;2024-03-02T00:35:49;4.45;;;1.05;;
80187;SDS011;73735;52.134;5.436;2024-03-02T00:38:16;4.97;;;1.02;;
80187;SDS011;73735;52.134;5.436;2024-03-02T00:40:43;3.28;;;1.30;;
80187;SDS011;73735;52.134;5.436;2024-03-02T00:43:21;4.75;;;1.13;;
80187;SDS011;73735;52.134;5.436;2024-03-02T00:46:07;3.10;;;1.08;;
80187;SDS011;73735;52.134;5.436;2024-03-02T00:48:34;3.75;;;1.08;;
80187;SDS011;73735;52.134;5.436;2024-03-02T00:51:02;2.80;;;1.00;;
80187;SDS011;73735;52.134;5.436;2024-03-02T00:53:30;2.63;;;0.77;;
80187;SDS011;73735;52.134;5.436;2024-03-02T00:55:59;3.13;;;0.70;;
80187;SDS011;73735;52.134;5.436;2024-03-02T00:58:28;2.03;;;0.60;;
80187;SDS011;73735;52.134;5.436;2024-03-02T01:00:55;1.63;;;0.50;;
80187;SDS011;73735;52.134;5.436;2024-03-02T01:03:21;1.30;;;0.40;;
80187;SDS011;73735;52.134;5.436;2024-03-02T01:05:48;2.10;;;0.60;;
80187;SDS011;73735;52.134;5.436;2024-03-02T01:08:14;3.08;;;0.57;;
80187;SDS011;73735;52.134;5.436;2024-03-02T01:10:41;2.17;;;0.50;;
80187;SDS011;73735;52.134;5.436;2024-03-02T01:13:07;1.33;;;0.40;;
80187;SDS011;73735;52.134;5.436;2024-03-02T01:15:34;1.48;;;0.45;;
80187;SDS011;73735;52.134;5.436;2024-03-02T01:18:00;1.92;;;0.47;;
80187;SDS011;73735;52.134;5.436;2024-03-02T01:20:27;1.73;;;0.32;;
80187;SDS011;73735;52.134;5.436;2024-03-02T01:22:53;1.25;;;0.30;;
80187;SDS011;73735;52.134;5.436;2024-03-02T01:25:22;2.03;;;0.55;;
80187;SDS011;73735;52.134;5.436;2024-03-02T01:27:49;2.50;;;0.60;;
80187;SDS011;73735;52.134;5.436;2024-03-02T01:30:16;1.20;;;0.52;;
80187;SDS011;73735;52.134;5.436;2024-03-02T01:32:42;1.38;;;0.40;;
80187;SDS011;73735;52.134;5.436;2024-03-02T01:35:09;0.80;;;0.30;;
80187;SDS011;73735;52.134;5.436;2024-03-02T01:37:36;1.75;;;0.45;;
80187;SDS011;73735;52.134;5.436;2024-03-02T01:40:02;1.45;;;0.47;;
80187;SDS011;73735;52.134;5.436;2024-03-02T01:42:29;1.45;;;0.57;;
80187;SDS011;73735;52.134;5.436;2024-03-02T01:44:56;1.00;;;0.35;;
80187;SDS011;73735;52.134;5.436;2024-03-02T01:47:23;1.58;;;0.50;;
80187;SDS011;73735;52.134;5.436;2024-03-02T01:49:50;2.28;;;0.60;;
80187;SDS011;73735;52.134;5.436;2024-03-02T01:52:16;1.10;;;0.40;;
80187;SDS011;73735;52.134;5.436;2024-03-02T01:54:43;1.42;;;0.52;;
80187;SDS011;73735;52.134;5.436;2024-03-02T01:57:10;1.17;;;0.30;;
80187;SDS011;73735;52.134;5.436;2024-03-02T01:59:37;1.45;;;0.50;;
80187;SDS011;73735;52.134;5.436;2024-03-02T02:02:03;1.23;;;0.43;;
80187;SDS011;73735;52.134;5.436;2024-03-02T02:04:30;1.15;;;0.40;;
80187;SDS011;73735;52.134;5.436;2024-03-02T02:06:57;2.08;;;0.60;;
80187;SDS011;73735;52.134;5.436;2024-03-02T02:09:23;1.92;;;0.60;;
80187;SDS011;73735;52.134;5.436;2024-03-02T02:11:51;1.73;;;0.50;;
80187;SDS011;73735;52.134;5.436;2024-03-02T02:14:17;0.98;;;0.35;;
80187;SDS011;73735;52.134;5.436;2024-03-02T02:16:44;1.70;;;0.52;;
80187;SDS011;73735;52.134;5.436;2024-03-02T02:19:11;1.30;;;0.45;;
80187;SDS011;73735;52.134;5.436;2024-03-02T02:21:37;1.73;;;0.55;;
80187;SDS011;73735;52.134;5.436;2024-03-02T02:24:04;2.45;;;0.50;;
80187;SDS011;73735;52.134;5.436;2024-03-02T02:26:30;1.63;;;0.50;;
80187;SDS011;73735;52.134;5.436;2024-03-02T02:28:57;0.88;;;0.30;;
80187;SDS011;73735;52.134;5.436;2024-03-02T02:31:23;1.08;;;0.40;;
80187;SDS011;73735;52.134;5.436;2024-03-02T02:33:49;2.75;;;1.02;;
80187;SDS011;73735;52.134;5.436;2024-03-02T02:36:16;1.52;;;0.55;;
80187;SDS011;73735;52.134;5.436;2024-03-02T02:38:44;1.30;;;0.47;;
80187;SDS011;73735;52.134;5.436;2024-03-02T02:41:14;2.38;;;0.70;;
80187;SDS011;73735;52.134;5.436;2024-03-02T02:43:41;1.67;;;0.57;;
80187;SDS011;73735;52.134;5.436;2024-03-02T02:46:07;1.63;;;0.60;;
80187;SDS011;73735;52.134;5.436;2024-03-02T02:48:34;0.80;;;0.30;;
80187;SDS011;73735;52.134;5.436;2024-03-02T02:51:00;1.98;;;0.60;;
80187;SDS011;73735;52.134;5.436;2024-03-02T02:53:27;1.35;;;0.57;;
80187;SDS011;73735;52.134;5.436;2024-03-02T02:55:53;1.40;;;0.50;;
80187;SDS011;73735;52.134;5.436;2024-03-02T02:58:20;0.90;;;0.30;;
80187;SDS011;73735;52.134;5.436;2024-03-02T03:00:46;1.73;;;0.60;;
80187;SDS011;73735;52.134;5.436;2024-03-02T03:03:13;1.25;;;0.40;;
80187;SDS011;73735;52.134;5.436;2024-03-02T03:05:39;0.85;;;0.38;;
80187;SDS011;73735;52.134;5.436;2024-03-02T03:08:06;1.33;;;0.50;;
80187;SDS011;73735;52.134;5.436;2024-03-02T03:10:32;1.65;;;0.60;;
80187;SDS011;73735;52.134;5.436;2024-03-02T03:12:59;1.65;;;0.60;;
80187;SDS011;73735;52.134;5.436;2024-03-02T03:15:26;1.48;;;0.50;;
80187;SDS011;73735;52.134;5.436;2024-03-02T03:17:52;1.75;;;0.60;;
80187;SDS011;73735;52.134;5.436;2024-03-02T03:20:19;2.38;;;0.70;;
80187;SDS011;73735;52.134;5.436;2024-03-02T03:22:47;2.22;;;0.45;;
80187;SDS011;73735;52.134;5.436;2024-03-02T03:25:14;1.85;;;0.50;;
80187;SDS011;73735;52.134;5.436;2024-03-02T03:27:40;2.42;;;0.50;;
80187;SDS011;73735;52.134;5.436;2024-03-02T03:30:08;0.85;;;0.38;;
80187;SDS011;73735;52.134;5.436;2024-03-02T03:32:35;1.80;;;0.45;;
80187;SDS011;73735;52.134;5.436;2024-03-02T03:35:01;1.73;;;0.57;;
80187;SDS011;73735;52.134;5.436;2024-03-02T03:37:28;0.85;;;0.30;;
80187;SDS011;73735;52.134;5.436;2024-03-02T03:39:59;1.30;;;0.43;;
80187;SDS011;73735;52.134;5.436;2024-03-02T03:42:27;1.48;;;0.43;;
80187;SDS011;73735;52.134;5.436;2024-03-02T03:44:53;1.35;;;0.40;;
80187;SDS011;73735;52.134;5.436;2024-03-02T03:47:20;1.08;;;0.40;;
80187;SDS011;73735;52.134;5.436;2024-03-02T03:49:46;1.15;;;0.43;;
80187;SDS011;73735;52.134;5.436;2024-03-02T03:52:13;1.00;;;0.50;;
80187;SDS011;73735;52.134;5.436;2024-03-02T03:54:39;1.23;;;0.50;;
80187;SDS011;73735;52.134;5.436;2024-03-02T03:57:06;0.82;;;0.43;;
80187;SDS011;73735;52.134;5.436;2024-03-02T03:59:32;1.95;;;0.43;;
80187;SDS011;73735;52.134;5.436;2024-03-02T04:01:59;1.83;;;0.60;;
80187;SDS011;73735;52.134;5.436;2024-03-02T04:04:25;1.95;;;0.60;;
80187;SDS011;73735;52.134;5.436;2024-03-02T04:06:52;1.52;;;0.30;;
80187;SDS011;73735;52.134;5.436;2024-03-02T04:09:18;2.13;;;0.50;;
80187;SDS011;73735;52.134;5.436;2024-03-02T04:11:45;1.45;;;0.50;;
80187;SDS011;73735;52.134;5.436;2024-03-02T04:14:12;1.92;;;0.50;;
80187;SDS011;73735;52.134;5.436;2024-03-02T04:16:38;1.48;;;0.55;;
80187;SDS011;73735;52.134;5.436;2024-03-02T04:19:05;1.98;;;0.55;;
80187;SDS011;73735;52.134;5.436;2024-03-02T04:21:31;1.67;;;0.57;;
80187;SDS011;73735;52.134;5.436;2024-03-02T04:23:58;1.38;;;0.47;;
80187;SDS011;73735;52.134;5.436;2024-03-02T04:26:26;2.00;;;0.60;;
80187;SDS011;73735;52.134;5.436;2024-03-02T04:28:53;2.70;;;0.70;;
80187;SDS011;73735;52.134;5.436;2024-03-02T04:31:20;1.88;;;0.60;;
80187;SDS011;73735;52.134;5.436;2024-03-02T04:33:47;1.75;;;0.50;;
80187;SDS011;73735;52.134;5.436;2024-03-02T04:36:14;1.45;;;0.47;;
80187;SDS011;73735;52.134;5.436;2024-03-02T04:38:40;0.98;;;0.40;;
80187;SDS011;73735;52.134;5.436;2024-03-02T04:41:07;1.83;;;0.52;;
80187;SDS011;73735;52.134;5.436;2024-03-02T04:43:34;2.70;;;0.52;;
80187;SDS011;73735;52.134;5.436;2024-03-02T04:46:00;1.50;;;0.45;;
80187;SDS011;73735;52.134;5.436;2024-03-02T04:48:27;2.80;;;0.60;;
80187;SDS011;73735;52.134;5.436;2024-03-02T04:50:54;1.75;;;0.40;;
80187;SDS011;73735;52.134;5.436;2024-03-02T04:53:20;1.77;;;0.50;;
80187;SDS011;73735;52.134;5.436;2024-03-02T04:55:47;1.33;;;0.40;;
80187;SDS011;73735;52.134;5.436;2024-03-02T04:58:32;3.00;;;0.57;;
80187;SDS011;73735;52.134;5.436;2024-03-02T05:00:58;1.15;;;0.45;;
80187;SDS011;73735;52.134;5.436;2024-03-02T05:03:25;2.58;;;0.60;;
80187;SDS011;73735;52.134;5.436;2024-03-02T05:05:51;1.85;;;0.50;;
80187;SDS011;73735;52.134;5.436;2024-03-02T05:08:18;4.68;;;0.73;;
80187;SDS011;73735;52.134;5.436;2024-03-02T05:10:44;1.55;;;0.50;;
80187;SDS011;73735;52.134;5.436;2024-03-02T05:13:11;1.42;;;0.52;;
80187;SDS011;73735;52.134;5.436;2024-03-02T05:15:37;1.13;;;0.32;;
80187;SDS011;73735;52.134;5.436;2024-03-02T05:18:04;1.10;;;0.43;;
80187;SDS011;73735;52.134;5.436;2024-03-02T05:20:31;2.03;;;0.60;;
80187;SDS011;73735;52.134;5.436;2024-03-02T05:22:58;2.63;;;0.43;;
80187;SDS011;73735;52.134;5.436;2024-03-02T05:25:24;1.73;;;0.60;;
80187;SDS011;73735;52.134;5.436;2024-03-02T05:27:51;1.40;;;0.40;;
80187;SDS011;73735;52.134;5.436;2024-03-02T05:30:17;2.45;;;0.60;;
80187;SDS011;73735;52.134;5.436;2024-03-02T05:32:44;1.55;;;0.50;;
80187;SDS011;73735;52.134;5.436;2024-03-02T05:35:10;3.35;;;0.50;;
80187;SDS011;73735;52.134;5.436;2024-03-02T05:37:39;3.17;;;0.40;;
80187;SDS011;73735;52.134;5.436;2024-03-02T05:40:05;3.35;;;0.50;;
80187;SDS011;73735;52.134;5.436;2024-03-02T05:42:32;1.02;;;0.30;;
80187;SDS011;73735;52.134;5.436;2024-03-02T05:44:59;1.63;;;0.50;;
80187;SDS011;73735;52.134;5.436;2024-03-02T05:47:25;3.03;;;0.55;;
80187;SDS011;73735;52.134;5.436;2024-03-02T05:49:52;1.48;;;0.63;;
80187;SDS011;73735;52.134;5.436;2024-03-02T05:52:18;1.35;;;0.30;;
80187;SDS011;73735;52.134;5.436;2024-03-02T05:54:45;1.88;;;0.43;;
80187;SDS011;73735;52.134;5.436;2024-03-02T05:57:11;1.85;;;0.55;;
80187;SDS011;73735;52.134;5.436;2024-03-02T05:59:58;2.38;;;0.50;;
80187;SDS011;73735;52.134;5.436;2024-03-02T06:02:24;2.05;;;0.60;;
80187;SDS011;73735;52.134;5.436;2024-03-02T06:04:52;3.08;;;0.60;;
80187;SDS011;73735;52.134;5.436;2024-03-02T06:07:20;1.17;;;0.40;;
80187;SDS011;73735;52.134;5.436;2024-03-02T06:09:46;2.03;;;0.77;;
80187;SDS011;73735;52.134;5.436;2024-03-02T06:12:14;2.22;;;0.50;;
80187;SDS011;73735;52.134;5.436;2024-03-02T06:14:41;1.33;;;0.40;;
80187;SDS011;73735;52.134;5.436;2024-03-02T06:17:07;2.05;;;0.60;;
80187;SDS011;73735;52.134;5.436;2024-03-02T06:19:34;1.92;;;0.50;;
80187;SDS011;73735;52.134;5.436;2024-03-02T06:22:00;1.58;;;0.50;;
80187;SDS011;73735;52.134;5.436;2024-03-02T06:24:27;2.30;;;0.68;;
80187;SDS011;73735;52.134;5.436;2024-03-02T06:26:53;2.85;;;0.70;;
80187;SDS011;73735;52.134;5.436;2024-03-02T06:29:19;1.65;;;0.60;;
80187;SDS011;73735;52.134;5.436;2024-03-02T06:31:46;1.98;;;0.57;;
80187;SDS011;73735;52.134;5.436;2024-03-02T06:34:12;1.70;;;0.60;;
80187;SDS011;73735;52.134;5.436;2024-03-02T06:36:39;1.98;;;0.82;;
80187;SDS011;73735;52.134;5.436;2024-03-02T06:39:07;2.65;;;0.75;;
80187;SDS011;73735;52.134;5.436;2024-03-02T06:41:34;1.83;;;0.60;;
80187;SDS011;73735;52.134;5.436;2024-03-02T06:44:00;3.55;;;0.73;;
80187;SDS011;73735;52.134;5.436;2024-03-02T06:46:27;2.10;;;0.70;;
80187;SDS011;73735;52.134;5.436;2024-03-02T06:48:53;2.92;;;0.70;;
80187;SDS011;73735;52.134;5.436;2024-03-02T06:51:20;3.17;;;0.70;;
80187;SDS011;73735;52.134;5.436;2024-03-02T06:53:46;1.40;;;0.60;;
80187;SDS011;73735;52.134;5.436;2024-03-02T06:56:13;1.17;;;0.40;;
80187;SDS011;73735;52.134;5.436;2024-03-02T06:58:39;2.53;;;0.60;;
80187;SDS011;73735;52.134;5.436;2024-03-02T07:01:06;1.35;;;0.50;;
80187;SDS011;73735;52.134;5.436;2024-03-02T07:03:32;1.58;;;0.50;;
80187;SDS011;73735;52.134;5.436;2024-03-02T07:05:59;2.28;;;0.65;;
80187;SDS011;73735;52.134;5.436;2024-03-02T07:08:26;2.20;;;0.73;;
80187;SDS011;73735;52.134;5.436;2024-03-02T07:10:53;3.22;;;1.63;;
80187;SDS011;73735;52.134;5.436;2024-03-02T07:13:20;1.33;;;0.50;;
80187;SDS011;73735;52.134;5.436;2024-03-02T07:15:46;1.55;;;0.50;;
80187;SDS011;73735;52.134;5.436;2024-03-02T07:18:31;1.80;;;0.52;;
80187;SDS011;73735;52.134;5.436;2024-03-02T07:20:59;1.75;;;0.60;;
80187;SDS011;73735;52.134;5.436;2024-03-02T07:23:27;2.72;;;0.68;;
80187;SDS011;73735;52.134;5.436;2024-03-02T07:25:54;2.58;;;0.60;;
80187;SDS011;73735;52.134;5.436;2024-03-02T07:28:26;2.08;;;0.50;;
80187;SDS011;73735;52.134;5.436;2024-03-02T07:31:02;0.70;;;0.40;;
80187;SDS011;73735;52.134;5.436;2024-03-02T07:33:30;2.08;;;0.60;;
80187;SDS011;73735;52.134;5.436;2024-03-02T07:35:57;2.78;;;0.68;;
80187;SDS011;73735;52.134;5.436;2024-03-02T07:38:28;2.03;;;0.68;;
80187;SDS011;73735;52.134;5.436;2024-03-02T07:40:55;1.73;;;0.68;;
80187;SDS011;73735;52.134;5.436;2024-03-02T07:43:22;1.67;;;0.60;;
80187;SDS011;73735;52.134;5.436;2024-03-02T07:45:48;1.58;;;0.57;;
80187;SDS011;73735;52.134;5.436;2024-03-02T07:48:15;2.72;;;0.70;;
80187;SDS011;73735;52.134;5.436;2024-03-02T07:50:41;2.17;;;0.70;;
80187;SDS011;73735;52.134;5.436;2024-03-02T07:53:09;2.03;;;0.50;;
80187;SDS011;73735;52.134;5.436;2024-03-02T07:55:35;1.50;;;0.50;;
80187;SDS011;73735;52.134;5.436;2024-03-02T07:58:02;2.13;;;0.38;;
80187;SDS011;73735;52.134;5.436;2024-03-02T08:00:29;2.50;;;0.55;;
80187;SDS011;73735;52.134;5.436;2024-03-02T08:02:55;1.55;;;0.50;;
80187;SDS011;73735;52.134;5.436;2024-03-02T08:05:22;2.03;;;0.60;;
80187;SDS011;73735;52.134;5.436;2024-03-02T08:07:49;3.42;;;0.60;;
80187;SDS011;73735;52.134;5.436;2024-03-02T08:10:18;2.60;;;0.50;;
80187;SDS011;73735;52.134;5.436;2024-03-02T08:12:45;3.25;;;0.70;;
80187;SDS011;73735;52.134;5.436;2024-03-02T08:15:12;3.83;;;0.70;;
80187;SDS011;73735;52.134;5.436;2024-03-02T08:17:39;1.23;;;0.40;;
80187;SDS011;73735;52.134;5.436;2024-03-02T08:20:11;3.05;;;0.70;;
80187;SDS011;73735;52.134;5.436;2024-03-02T08:22:38;2.47;;;0.65;;
80187;SDS011;73735;52.134;5.436;2024-03-02T08:25:04;1.38;;;0.43;;
80187;SDS011;73735;52.134;5.436;2024-03-02T08:27:31;2.35;;;0.50;;
80187;SDS011;73735;52.134;5.436;2024-03-02T08:29:59;2.72;;;0.68;;
80187;SDS011;73735;52.134;5.436;2024-03-02T08:32:26;2.33;;;0.70;;
80187;SDS011;73735;52.134;5.436;2024-03-02T08:34:52;1.73;;;0.43;;
80187;SDS011;73735;52.134;5.436;2024-03-02T08:37:19;1.15;;;0.40;;
80187;SDS011;73735;52.134;5.436;2024-03-02T08:39:46;1.85;;;0.50;;
80187;SDS011;73735;52.134;5.436;2024-03-02T08:42:12;3.33;;;0.70;;
80187;SDS011;73735;52.134;5.436;2024-03-02T08:44:39;2.03;;;0.60;;
80187;SDS011;73735;52.134;5.436;2024-03-02T08:47:05;2.03;;;0.63;;
80187;SDS011;73735;52.134;5.436;2024-03-02T08:49:32;2.38;;;0.63;;
80187;SDS011;73735;52.134;5.436;2024-03-02T08:51:59;2.38;;;0.82;;
80187;SDS011;73735;52.134;5.436;2024-03-02T08:54:26;1.52;;;0.57;;
80187;SDS011;73735;52.134;5.436;2024-03-02T08:56:52;2.65;;;0.55;;
80187;SDS011;73735;52.134;5.436;2024-03-02T08:59:19;2.72;;;0.75;;
80187;SDS011;73735;52.134;5.436;2024-03-02T09:01:45;2.17;;;0.60;;
80187;SDS011;73735;52.134;5.436;2024-03-02T09:04:12;4.15;;;1.10;;
80187;SDS011;73735;52.134;5.436;2024-03-02T09:06:38;4.88;;;0.73;;
80187;SDS011;73735;52.134;5.436;2024-03-02T09:09:05;4.25;;;0.60;;
80187;SDS011;73735;52.134;5.436;2024-03-02T09:11:33;7.25;;;1.00;;
80187;SDS011;73735;52.134;5.436;2024-03-02T09:13:59;3.10;;;0.80;;
80187;SDS011;73735;52.134;5.436;2024-03-02T09:16:26;1.95;;;0.60;;
80187;SDS011;73735;52.134;5.436;2024-03-02T09:18:57;4.07;;;0.60;;
80187;SDS011;73735;52.134;5.436;2024-03-02T09:21:24;4.47;;;0.90;;
80187;SDS011;73735;52.134;5.436;2024-03-02T09:23:51;2.58;;;0.60;;
80187;SDS011;73735;52.134;5.436;2024-03-02T09:26:18;2.78;;;0.73;;
80187;SDS011;73735;52.134;5.436;2024-03-02T09:28:46;4.20;;;0.52;;
80187;SDS011;73735;52.134;5.436;2024-03-02T09:31:13;3.38;;;0.70;;
80187;SDS011;73735;52.134;5.436;2024-03-02T09:33:39;3.05;;;0.60;;
80187;SDS011;73735;52.134;5.436;2024-03-02T09:36:16;3.65;;;0.70;;
80187;SDS011;73735;52.134;5.436;2024-03-02T09:38:43;2.53;;;0.65;;
80187;SDS011;73735;52.134;5.436;2024-03-02T09:41:09;4.15;;;0.80;;
80187;SDS011;73735;52.134;5.436;2024-03-02T09:43:36;3.30;;;0.70;;
80187;SDS011;73735;52.134;5.436;2024-03-02T09:46:04;2.42;;;0.60;;
80187;SDS011;73735;52.134;5.436;2024-03-02T09:48:31;1.92;;;0.52;;
80187;SDS011;73735;52.134;5.436;2024-03-02T09:50:57;3.00;;;0.73;;
80187;SDS011;73735;52.134;5.436;2024-03-02T09:53:26;5.30;;;0.90;;
80187;SDS011;73735;52.134;5.436;2024-03-02T09:55:58;3.72;;;0.70;;
80187;SDS011;73735;52.134;5.436;2024-03-02T09:58:26;4.32;;;0.77;;
80187;SDS011;73735;52.134;5.436;2024-03-02T10:00:52;4.55;;;0.63;;
80187;SDS011;73735;52.134;5.436;2024-03-02T10:03:19;2.88;;;1.00;;
80187;SDS011;73735;52.134;5.436;2024-03-02T10:05:47;1.95;;;0.70;;
80187;SDS011;73735;52.134;5.436;2024-03-02T10:08:13;3.28;;;0.73;;
80187;SDS011;73735;52.134;5.436;2024-03-02T10:10:40;2.25;;;0.70;;
80187;SDS011;73735;52.134;5.436;2024-03-02T10:13:09;3.38;;;0.80;;
80187;SDS011;73735;52.134;5.436;2024-03-02T10:15:38;5.53;;;0.80;;
80187;SDS011;73735;52.134;5.436;2024-03-02T10:18:09;4.07;;;0.80;;
80187;SDS011;73735;52.134;5.436;2024-03-02T10:20:40;2.33;;;0.52;;
80187;SDS011;73735;52.134;5.436;2024-03-02T10:23:14;3.65;;;0.90;;
80187;SDS011;73735;52.134;5.436;2024-03-02T10:25:42;5.40;;;1.00;;
80187;SDS011;73735;52.134;5.436;2024-03-02T10:28:22;5.13;;;0.88;;
80187;SDS011;73735;52.134;5.436;2024-03-02T10:30:49;9.30;;;0.95;;
80187;SDS011;73735;52.134;5.436;2024-03-02T10:33:17;2.13;;;0.75;;
80187;SDS011;73735;52.134;5.436;2024-03-02T10:35:44;3.47;;;0.65;;
80187;SDS011;73735;52.134;5.436;2024-03-02T10:38:11;2.65;;;0.80;;
80187;SDS011;73735;52.134;5.436;2024-03-02T10:40:38;2.40;;;0.68;;
80187;SDS011;73735;52.134;5.436;2024-03-02T10:43:04;2.30;;;0.70;;
80187;SDS011;73735;52.134;5.436;2024-03-02T10:45:32;4.50;;;0.80;;
80187;SDS011;73735;52.134;5.436;2024-03-02T10:47:58;2.40;;;0.70;;
80187;SDS011;73735;52.134;5.436;2024-03-02T10:50:28;2.20;;;0.52;;
80187;SDS011;73735;52.134;5.436;2024-03-02T10:52:56;2.22;;;0.60;;
80187;SDS011;73735;52.134;5.436;2024-03-02T10:55:22;3.08;;;0.80;;
80187;SDS011;73735;52.134;5.436;2024-03-02T10:57:53;4.95;;;0.90;;
80187;SDS011;73735;52.134;5.436;2024-03-02T11:00:24;6.05;;;1.05;;
80187;SDS011;73735;52.134;5.436;2024-03-02T11:02:56;3.22;;;0.63;;
80187;SDS011;73735;52.134;5.436;2024-03-02T11:05:27;3.00;;;0.70;;
80187;SDS011;73735;52.134;5.436;2024-03-02T11:08:02;3.10;;;0.70;;
80187;SDS011;73735;52.134;5.436;2024-03-02T11:10:34;2.30;;;0.60;;
80187;SDS011;73735;52.134;5.436;2024-03-02T11:13:05;3.55;;;0.70;;
80187;SDS011;73735;52.134;5.436;2024-03-02T11:15:35;2.33;;;0.50;;
80187;SDS011;73735;52.134;5.436;2024-03-02T11:18:05;4.30;;;1.13;;
80187;SDS011;73735;52.134;5.436;2024-03-02T11:20:38;2.70;;;0.45;;
80187;SDS011;73735;52.134;5.436;2024-03-02T11:23:06;3.70;;;0.70;;
80187;SDS011;73735;52.134;5.436;2024-03-02T11:25:33;3.33;;;0.70;;
80187;SDS011;73735;52.134;5.436;2024-03-02T11:32:58;2.63;;;0.55;;
80187;SDS011;73735;52.134;5.436;2024-03-02T11:35:40;2.22;;;0.50;;
80187;SDS011;73735;52.134;5.436;2024-03-02T11:38:17;2.42;;;0.52;;
80187;SDS011;73735;52.134;5.436;2024-03-02T11:40:44;3.70;;;0.70;;
80187;SDS011;73735;52.134;5.436;2024-03-02T11:43:11;3.08;;;0.50;;
80187;SDS011;73735;52.134;5.436;2024-03-02T11:45:38;4.72;;;0.88;;
80187;SDS011;73735;52.134;5.436;2024-03-02T11:48:11;2.08;;;0.50;;
80187;SDS011;73735;52.134;5.436;2024-03-02T11:50:47;2.65;;;0.63;;
80187;SDS011;73735;52.134;5.436;2024-03-02T11:53:16;3.15;;;0.63;;
80187;SDS011;73735;52.134;5.436;2024-03-02T11:55:44;2.58;;;0.60;;
80187;SDS011;73735;52.134;5.436;2024-03-02T11:58:17;3.22;;;0.50;;
80187;SDS011;73735;52.134;5.436;2024-03-02T12:00:44;1.65;;;0.57;;
80187;SDS011;73735;52.134;5.436;2024-03-02T12:03:12;3.63;;;0.50;;
80187;SDS011;73735;52.134;5.436;2024-03-02T12:05:39;4.10;;;0.73;;
80187;SDS011;73735;52.134;5.436;2024-03-02T12:08:06;2.90;;;0.55;;
80187;SDS011;73735;52.134;5.436;2024-03-02T12:10:34;2.50;;;0.63;;
80187;SDS011;73735;52.134;5.436;2024-03-02T12:13:02;4.25;;;0.70;;
80187;SDS011;73735;52.134;5.436;2024-03-02T12:15:31;4.10;;;0.80;;
80187;SDS011;73735;52.134;5.436;2024-03-02T12:18:00;2.50;;;0.50;;
80187;SDS011;73735;52.134;5.436;2024-03-02T12:20:28;3.35;;;0.60;;
80187;SDS011;73735;52.134;5.436;2024-03-02T12:22:57;2.47;;;0.63;;
80187;SDS011;73735;52.134;5.436;2024-03-02T12:25:25;1.42;;;0.60;;
80187;SDS011;73735;52.134;5.436;2024-03-02T12:27:53;3.00;;;0.55;;
80187;SDS011;73735;52.134;5.436;2024-03-02T12:30:21;3.22;;;0.90;;
80187;SDS011;73735;52.134;5.436;2024-03-02T12:32:50;3.55;;;0.70;;
80187;SDS011;73735;52.134;5.436;2024-03-02T12:35:17;4.78;;;0.90;;
80187;SDS011;73735;52.134;5.436;2024-03-02T12:37:45;1.88;;;0.60;;
80187;SDS011;73735;52.134;5.436;2024-03-02T12:40:25;3.55;;;0.60;;
80187;SDS011;73735;52.134;5.436;2024-03-02T12:42:53;2.10;;;0.50;;
80187;SDS011;73735;52.134;5.436;2024-03-02T12:45:20;3.83;;;0.80;;
80187;SDS011;73735;52.134;5.436;2024-03-02T12:47:51;4.07;;;0.95;;
80187;SDS011;73735;52.134;5.436;2024-03-02T12:50:18;3.60;;;0.90;;
80187;SDS011;73735;52.134;5.436;2024-03-02T12:55:17;4.35;;;1.00;;
80187;SDS011;73735;52.134;5.436;2024-03-02T12:57:43;3.78;;;0.70;;
80187;SDS011;73735;52.134;5.436;2024-03-02T13:00:13;4.03;;;0.80;;
80187;SDS011;73735;52.134;5.436;2024-03-02T13:02:40;4.07;;;0.80;;
80187;SDS011;73735;52.134;5.436;2024-03-02T13:05:07;5.07;;;1.00;;
80187;SDS011;73735;52.134;5.436;2024-03-02T13:07:37;2.75;;;0.80;;
80187;SDS011;73735;52.134;5.436;2024-03-02T13:12:32;2.53;;;0.70;;
80187;SDS011;73735;52.134;5.436;2024-03-02T13:14:59;2.15;;;0.60;;
80187;SDS011;73735;52.134;5.436;2024-03-02T13:17:26;3.38;;;1.00;;
80187;SDS011;73735;52.134;5.436;2024-03-02T13:19:58;3.55;;;0.90;;
80187;SDS011;73735;52.134;5.436;2024-03-02T13:22:25;4.65;;;0.90;;
80187;SDS011;73735;52.134;5.436;2024-03-02T13:24:52;2.45;;;0.88;;
80187;SDS011;73735;52.134;5.436;2024-03-02T13:27:23;4.13;;;0.88;;
80187;SDS011;73735;52.134;5.436;2024-03-02T13:29:49;4.32;;;1.15;;
80187;SDS011;73735;52.134;5.436;2024-03-02T13:32:16;3.55;;;1.13;;
80187;SDS011;73735;52.134;5.436;2024-03-02T13:34:43;3.50;;;0.90;;
80187;SDS011;73735;52.134;5.436;2024-03-02T13:37:09;4.32;;;1.08;;
80187;SDS011;73735;52.134;5.436;2024-03-02T13:39:36;3.50;;;0.95;;
80187;SDS011;73735;52.134;5.436;2024-03-02T13:42:07;4.75;;;0.98;;
80187;SDS011;73735;52.134;5.436;2024-03-02T13:44:38;2.72;;;0.95;;
80187;SDS011;73735;52.134;5.436;2024-03-02T13:47:05;2.90;;;0.75;;
80187;SDS011;73735;52.134;5.436;2024-03-02T13:49:32;2.25;;;0.88;;
80187;SDS011;73735;52.134;5.436;2024-03-02T13:52:07;4.32;;;1.13;;
80187;SDS011;73735;52.134;5.436;2024-03-02T13:54:39;3.38;;;0.90;;
80187;SDS011;73735;52.134;5.436;2024-03-02T13:57:08;3.33;;;0.85;;
80187;SDS011;73735;52.134;5.436;2024-03-02T13:59:36;2.70;;;0.80;;
80187;SDS011;73735;52.134;5.436;2024-03-02T14:02:03;2.58;;;0.80;;
80187;SDS011;73735;52.134;5.436;2024-03-02T14:04:32;3.20;;;1.00;;
80187;SDS011;73735;52.134;5.436;2024-03-02T14:06:59;2.70;;;0.70;;
80187;SDS011;73735;52.134;5.436;2024-03-02T14:09:27;3.63;;;1.00;;
80187;SDS011;73735;52.134;5.436;2024-03-02T14:11:54;2.45;;;0.85;;
80187;SDS011;73735;52.134;5.436;2024-03-02T14:14:21;4.28;;;1.10;;
80187;SDS011;73735;52.134;5.436;2024-03-02T14:16:49;6.93;;;1.20;;
80187;SDS011;73735;52.134;5.436;2024-03-02T14:19:15;4.30;;;1.08;;
80187;SDS011;73735;52.134;5.436;2024-03-02T14:21:42;4.53;;;1.17;;
80187;SDS011;73735;52.134;5.436;2024-03-02T14:24:08;3.78;;;1.00;;
80187;SDS011;73735;52.134;5.436;2024-03-02T14:26:35;4.03;;;1.00;;
80187;SDS011;73735;52.134;5.436;2024-03-02T14:29:03;3.75;;;0.90;;
80187;SDS011;73735;52.134;5.436;2024-03-02T14:31:30;3.60;;;0.93;;
80187;SDS011;73735;52.134;5.436;2024-03-02T14:33:57;4.03;;;1.00;;
80187;SDS011;73735;52.134;5.436;2024-03-02T14:36:25;3.72;;;0.80;;
80187;SDS011;73735;52.134;5.436;2024-03-02T14:38:53;4.55;;;1.50;;
80187;SDS011;73735;52.134;5.436;2024-03-02T14:43:50;3.35;;;0.70;;
80187;SDS011;73735;52.134;5.436;2024-03-02T14:46:17;1.70;;;0.63;;
80187;SDS011;73735;52.134;5.436;2024-03-02T14:51:11;2.58;;;0.93;;
80187;SDS011;73735;52.134;5.436;2024-03-02T14:53:39;3.40;;;1.00;;
80187;SDS011;73735;52.134;5.436;2024-03-02T14:56:05;3.65;;;0.80;;
80187;SDS011;73735;52.134;5.436;2024-03-02T14:58:32;3.35;;;0.85;;
80187;SDS011;73735;52.134;5.436;2024-03-02T15:00:58;4.20;;;1.05;;
80187;SDS011;73735;52.134;5.436;2024-03-02T15:03:25;4.10;;;1.00;;
80187;SDS011;73735;52.134;5.436;2024-03-02T15:05:51;2.92;;;0.70;;
80187;SDS011;73735;52.134;5.436;2024-03-02T15:08:19;2.08;;;0.70;;
80187;SDS011;73735;52.134;5.436;2024-03-02T15:10:46;4.07;;;0.70;;
80187;SDS011;73735;52.134;5.436;2024-03-02T15:13:12;3.80;;;0.80;;